createdAt,value
2018-04-17T00:01:46.483Z,12.60
2018-04-17T00:04:14.744Z,12.60
2018-04-17T00:06:43.023Z,12.50
2018-04-17T00:09:11.327Z,12.50
2018-04-17T00:11:38.884Z,12.50
2018-04-17T00:14:06.374Z,12.40
2018-04-17T00:16:33.887Z,12.40
2018-04-17T00:19:02.151Z,12.50
2018-04-17T00:21:29.654Z,12.50
2018-04-17T00:23:57.142Z,12.40
2018-04-17T00:26:24.675Z,12.40
2018-04-17T00:28:52.157Z,12.40
2018-04-17T00:31:19.690Z,12.30
2018-04-17T00:33:47.174Z,12.30
2018-04-17T00:36:14.705Z,12.30
2018-04-17T00:38:42.210Z,12.20
2018-04-17T00:41:09.723Z,12.30
2018-04-17T00:43:37.266Z,12.20
2018-04-17T00:46:04.798Z,12.10
2018-04-17T00:48:33.066Z,12.00
2018-04-17T00:51:00.567Z,12.00
2018-04-17T00:53:39.935Z,12.00
2018-04-17T00:56:07.447Z,12.00
2018-04-17T00:58:35.740Z,12.00
2018-04-17T01:01:03.248Z,12.00
2018-04-17T01:03:30.743Z,12.00
2018-04-17T01:05:58.256Z,12.00
2018-04-17T01:08:25.835Z,12.00
2018-04-17T01:10:53.421Z,11.90
2018-04-17T01:13:21.688Z,11.90
2018-04-17T01:15:49.977Z,11.80
2018-04-17T01:18:18.236Z,11.80
2018-04-17T01:20:46.606Z,11.80
2018-04-17T01:23:14.119Z,11.80
2018-04-17T01:25:41.631Z,11.70
2018-04-17T01:28:09.230Z,11.70
2018-04-17T01:30:36.753Z,11.70
2018-04-17T01:33:04.281Z,11.70
2018-04-17T01:35:31.835Z,11.70
2018-04-17T01:37:59.375Z,11.60
2018-04-17T01:40:26.885Z,11.60
2018-04-17T01:42:54.398Z,11.60
2018-04-17T01:45:21.918Z,11.60
2018-04-17T01:47:50.181Z,11.50
2018-04-17T01:50:18.443Z,11.50
2018-04-17T01:52:46.026Z,11.50
2018-04-17T01:55:14.282Z,11.50
2018-04-17T01:57:42.558Z,11.50
2018-04-17T02:00:10.058Z,11.50
2018-04-17T02:02:37.597Z,11.40
2018-04-17T02:05:05.913Z,11.40
2018-04-17T02:07:33.408Z,11.40
2018-04-17T02:10:00.926Z,11.40
2018-04-17T02:12:28.414Z,11.30
2018-04-17T02:14:55.923Z,11.30
2018-04-17T02:17:23.423Z,11.30
2018-04-17T02:19:50.922Z,11.30
2018-04-17T02:22:19.212Z,11.20
2018-04-17T02:24:47.496Z,11.20
2018-04-17T02:27:15.073Z,11.20
2018-04-17T02:29:42.576Z,11.20
2018-04-17T02:32:10.074Z,11.10
2018-04-17T02:34:37.595Z,11.10
2018-04-17T02:37:06.336Z,11.10
2018-04-17T02:39:33.838Z,11.00
2018-04-17T02:42:01.334Z,11.00
2018-04-17T02:44:28.828Z,11.00
2018-04-17T02:46:56.371Z,11.00
2018-04-17T02:49:23.866Z,11.00
2018-04-17T02:51:51.392Z,11.00
2018-04-17T02:54:18.918Z,11.00
2018-04-17T02:56:47.191Z,11.00
2018-04-17T02:59:15.494Z,10.90
2018-04-17T03:01:43.023Z,10.90
2018-04-17T03:04:11.301Z,10.90
2018-04-17T03:06:39.574Z,10.80
2018-04-17T03:09:07.825Z,10.80
2018-04-17T03:11:35.356Z,10.80
2018-04-17T03:14:03.762Z,10.80
2018-04-17T03:16:31.354Z,10.80
2018-04-17T03:18:59.634Z,10.80
2018-04-17T03:21:27.891Z,10.70
2018-04-17T03:23:55.407Z,10.70
2018-04-17T03:26:23.427Z,10.70
2018-04-17T03:28:50.939Z,10.60
2018-04-17T03:31:18.462Z,10.60
2018-04-17T03:33:46.823Z,10.50
2018-04-17T03:36:14.345Z,10.50
2018-04-17T03:38:41.837Z,10.40
2018-04-17T03:41:10.130Z,10.50
2018-04-17T03:43:38.400Z,10.40
2018-04-17T03:46:06.670Z,10.40
2018-04-17T03:48:34.189Z,10.40
2018-04-17T03:51:01.696Z,10.40
2018-04-17T03:53:30.004Z,10.40
2018-04-17T03:55:57.545Z,10.40
2018-04-17T03:58:25.046Z,10.30
2018-04-17T04:00:52.553Z,10.40
2018-04-17T04:03:20.830Z,10.40
2018-04-17T04:05:48.335Z,10.40
2018-04-17T04:08:15.852Z,10.40
2018-04-17T04:10:43.446Z,10.40
2018-04-17T04:13:10.954Z,10.40
2018-04-17T04:15:38.447Z,10.40
2018-04-17T04:18:17.748Z,10.40
2018-04-17T04:20:58.132Z,10.30
2018-04-17T04:23:38.244Z,10.30
2018-04-17T04:26:17.399Z,10.30
2018-04-17T04:28:45.677Z,10.30
2018-04-17T04:31:13.985Z,10.20
2018-04-17T04:33:41.477Z,10.20
2018-04-17T04:36:08.979Z,11.00
2018-04-17T04:38:37.258Z,12.20
2018-04-17T04:41:04.859Z,12.20
2018-04-17T04:43:32.362Z,12.00
2018-04-17T04:45:59.897Z,11.60
2018-04-17T04:48:27.405Z,11.30
2018-04-17T04:50:55.678Z,10.80
2018-04-17T04:53:23.203Z,10.80
2018-04-17T04:55:50.819Z,11.00
2018-04-17T04:58:18.311Z,10.90
2018-04-17T05:00:45.820Z,10.60
2018-04-17T05:03:13.322Z,10.50
2018-04-17T05:05:40.849Z,10.40
2018-04-17T05:08:08.404Z,10.40
2018-04-17T05:10:35.902Z,10.40
2018-04-17T05:13:03.419Z,10.40
2018-04-17T05:15:30.964Z,10.40
2018-04-17T05:17:59.250Z,10.40
2018-04-17T05:20:26.752Z,10.40
2018-04-17T05:22:54.384Z,10.40
2018-04-17T05:25:21.893Z,10.40
2018-04-17T05:27:49.499Z,10.40
2018-04-17T05:30:17.054Z,10.40
2018-04-17T05:32:44.549Z,10.40
2018-04-17T05:35:12.049Z,10.50
2018-04-17T05:37:40.397Z,10.60
2018-04-17T05:40:07.889Z,10.50
2018-04-17T05:42:36.283Z,10.50
2018-04-17T05:45:03.792Z,10.50
2018-04-17T05:47:31.426Z,10.50
2018-04-17T05:49:58.962Z,10.50
2018-04-17T05:52:26.539Z,10.60
2018-04-17T05:54:54.081Z,10.60
2018-04-17T05:57:21.614Z,10.50
2018-04-17T05:59:49.193Z,10.50
2018-04-17T06:02:17.478Z,10.50
2018-04-17T06:04:45.060Z,10.50
2018-04-17T06:07:12.611Z,10.50
2018-04-17T06:09:40.109Z,10.60
2018-04-17T06:12:07.612Z,10.50
2018-04-17T06:14:35.142Z,10.50
2018-04-17T06:17:02.625Z,10.40
2018-04-17T06:19:30.147Z,10.40
2018-04-17T06:21:57.665Z,10.40
2018-04-17T06:24:25.167Z,10.40
2018-04-17T06:26:53.439Z,10.40
2018-04-17T06:29:21.742Z,10.40
2018-04-17T06:31:50.706Z,10.50
2018-04-17T06:34:18.222Z,10.40
2018-04-17T06:36:45.717Z,10.40
2018-04-17T06:39:13.281Z,10.50
2018-04-17T06:41:40.800Z,10.50
2018-04-17T06:44:08.355Z,10.40
2018-04-17T06:46:35.855Z,10.50
2018-04-17T06:49:03.366Z,10.50
2018-04-17T06:51:30.868Z,10.60
2018-04-17T06:53:58.375Z,10.60
2018-04-17T06:56:26.672Z,10.70
2018-04-17T06:58:54.188Z,10.70
2018-04-17T07:01:21.675Z,10.70
2018-04-17T07:03:49.962Z,10.90
2018-04-17T07:06:17.458Z,10.80
2018-04-17T07:08:45.063Z,10.90
2018-04-17T07:11:13.327Z,11.00
2018-04-17T07:13:40.837Z,11.00
2018-04-17T07:16:08.366Z,11.10
2018-04-17T07:18:36.631Z,11.20
2018-04-17T07:21:04.934Z,11.30
2018-04-17T07:23:32.434Z,11.30
2018-04-17T07:25:59.931Z,11.40
2018-04-17T07:28:28.189Z,11.50
2018-04-17T07:30:55.704Z,11.40
2018-04-17T07:33:23.214Z,11.50
2018-04-17T07:35:51.461Z,11.70
2018-04-17T07:38:20.467Z,11.70
2018-04-17T07:40:48.003Z,11.70
2018-04-17T07:43:15.497Z,11.80
2018-04-17T07:45:43.006Z,11.80
2018-04-17T07:48:23.193Z,11.80
2018-04-17T07:50:50.699Z,11.70
2018-04-17T07:53:18.202Z,11.60
2018-04-17T07:55:45.764Z,11.60
2018-04-17T07:58:13.235Z,11.80
2018-04-17T08:00:40.723Z,11.80
2018-04-17T08:03:09.032Z,11.90
2018-04-17T08:05:36.519Z,11.90
2018-04-17T08:08:04.222Z,12.00
2018-04-17T08:10:32.572Z,12.20
2018-04-17T08:13:00.070Z,12.20
2018-04-17T08:15:27.576Z,12.30
2018-04-17T08:17:55.062Z,12.40
2018-04-17T08:20:23.329Z,12.50
2018-04-17T08:22:52.343Z,12.50
2018-04-17T08:25:20.603Z,12.70
2018-04-17T08:27:48.875Z,12.70
2018-04-17T08:30:16.370Z,12.70
2018-04-17T08:32:43.885Z,12.70
2018-04-17T08:35:11.511Z,12.70
2018-04-17T08:37:39.028Z,12.80
2018-04-17T08:40:07.324Z,12.90
2018-04-17T08:42:34.834Z,12.90
2018-04-17T08:45:02.348Z,13.10
2018-04-17T08:47:29.886Z,13.10
2018-04-17T08:49:58.250Z,13.20
2018-04-17T08:52:25.749Z,13.20
2018-04-17T08:54:53.278Z,13.40
2018-04-17T08:57:21.659Z,13.80
2018-04-17T08:59:50.611Z,14.20
2018-04-17T09:02:18.094Z,14.20
2018-04-17T09:04:45.671Z,14.40
2018-04-17T09:07:13.926Z,15.10
2018-04-17T09:09:41.538Z,15.10
2018-04-17T09:12:09.079Z,15.40
2018-04-17T09:14:36.626Z,15.70
2018-04-17T09:17:04.908Z,15.80
2018-04-17T09:19:33.166Z,16.30
2018-04-17T09:22:00.758Z,16.30
2018-04-17T09:24:28.648Z,16.50
2018-04-17T09:26:56.154Z,16.50
2018-04-17T09:29:23.654Z,17.10
2018-04-17T09:31:51.139Z,17.40
2018-04-17T09:34:18.655Z,17.40
2018-04-17T09:36:46.209Z,17.70
2018-04-17T09:39:13.774Z,17.70
2018-04-17T09:41:41.347Z,18.20
2018-04-17T09:44:08.891Z,18.30
2018-04-17T09:46:37.271Z,17.90
2018-04-17T09:49:04.832Z,18.00
2018-04-17T09:51:32.385Z,17.90
2018-04-17T09:53:59.915Z,17.60
2018-04-17T09:56:27.508Z,17.60
2018-04-17T09:58:55.784Z,17.80
2018-04-17T10:01:23.360Z,17.80
2018-04-17T10:03:50.842Z,17.80
2018-04-17T10:06:18.345Z,17.70
2018-04-17T10:08:46.707Z,18.30
2018-04-17T10:11:14.138Z,18.30
2018-04-17T10:13:41.634Z,18.70
2018-04-17T10:16:10.555Z,18.90
2018-04-17T10:18:38.063Z,18.90
2018-04-17T10:21:05.657Z,18.90
2018-04-17T10:23:33.934Z,19.20
2018-04-17T10:26:02.206Z,19.60
2018-04-17T10:28:30.478Z,19.70
2018-04-17T10:30:58.741Z,19.80
2018-04-17T10:33:26.223Z,19.80
2018-04-17T10:35:54.500Z,19.60
2018-04-17T10:38:22.765Z,19.60
2018-04-17T10:40:51.022Z,19.60
2018-04-17T10:43:18.615Z,19.60
2018-04-17T10:45:46.889Z,19.70
2018-04-17T10:48:15.168Z,20.00
2018-04-17T10:50:43.422Z,20.10
2018-04-17T10:53:10.917Z,20.00
2018-04-17T10:55:38.466Z,20.10
2018-04-17T10:58:05.954Z,19.80
2018-04-17T11:00:33.480Z,19.70
2018-04-17T11:03:01.776Z,19.50
2018-04-17T11:05:29.272Z,19.40
2018-04-17T11:07:56.767Z,19.70
2018-04-17T11:10:25.040Z,20.20
2018-04-17T11:12:53.436Z,20.70
2018-04-17T11:15:20.923Z,20.60
2018-04-17T11:17:48.413Z,21.10
2018-04-17T11:20:15.918Z,21.10
2018-04-17T11:22:43.406Z,21.30
2018-04-17T11:25:11.208Z,21.20
2018-04-17T11:27:38.782Z,21.50
2018-04-17T11:30:07.069Z,21.90
2018-04-17T11:32:34.562Z,21.90
2018-04-17T11:35:02.058Z,21.60
2018-04-17T11:37:29.573Z,21.70
2018-04-17T11:39:57.063Z,22.00
2018-04-17T11:42:24.565Z,21.50
2018-04-17T11:44:52.072Z,21.70
2018-04-17T11:47:19.570Z,21.70
2018-04-17T11:49:47.944Z,22.00
2018-04-17T11:52:16.202Z,22.00
2018-04-17T11:54:43.820Z,22.10
2018-04-17T11:57:11.315Z,22.00
2018-04-17T11:59:38.814Z,21.80
2018-04-17T12:02:06.322Z,21.40
2018-04-17T12:04:33.969Z,21.30
2018-04-17T12:07:01.448Z,21.30
2018-04-17T12:09:29.074Z,21.60
2018-04-17T12:11:56.607Z,22.00
2018-04-17T12:14:24.882Z,22.20
2018-04-17T12:16:52.414Z,22.20
2018-04-17T12:19:19.906Z,22.50
2018-04-17T12:21:47.425Z,22.40
2018-04-17T12:24:14.923Z,22.30
2018-04-17T12:26:42.482Z,22.50
2018-04-17T12:29:10.034Z,22.60
2018-04-17T12:31:37.553Z,22.60
2018-04-17T12:34:05.070Z,22.80
2018-04-17T12:36:32.592Z,22.70
2018-04-17T12:39:00.085Z,22.60
2018-04-17T12:41:27.604Z,22.80
2018-04-17T12:43:55.884Z,22.80
2018-04-17T12:46:23.499Z,22.70
2018-04-17T12:48:51.035Z,22.90
2018-04-17T12:51:18.550Z,23.20
2018-04-17T12:53:46.042Z,23.40
2018-04-17T12:56:14.317Z,23.50
2018-04-17T12:58:42.695Z,23.10
2018-04-17T13:01:10.960Z,22.90
2018-04-17T13:03:39.457Z,22.60
2018-04-17T13:06:06.973Z,22.50
2018-04-17T13:08:34.477Z,22.50
2018-04-17T13:11:02.725Z,22.70
2018-04-17T13:13:30.247Z,22.70
2018-04-17T13:15:57.741Z,22.90
2018-04-17T13:18:25.229Z,22.90
2018-04-17T13:20:53.517Z,22.80
2018-04-17T13:23:21.038Z,22.80
2018-04-17T13:25:48.535Z,23.00
2018-04-17T13:28:16.078Z,23.10
2018-04-17T13:30:44.367Z,22.50
2018-04-17T13:33:12.594Z,22.50
2018-04-17T13:35:40.194Z,22.60
2018-04-17T13:38:07.763Z,22.80
2018-04-17T13:40:35.449Z,23.00
2018-04-17T13:43:02.972Z,22.90
2018-04-17T13:45:31.240Z,23.00
2018-04-17T13:47:59.507Z,22.60
2018-04-17T13:50:27.019Z,22.60
2018-04-17T13:52:54.685Z,22.40
2018-04-17T13:55:22.274Z,22.40
2018-04-17T13:57:49.909Z,22.40
2018-04-17T14:00:18.274Z,22.70
2018-04-17T14:02:45.819Z,22.60
2018-04-17T14:05:13.339Z,22.80
2018-04-17T14:07:40.906Z,22.70
2018-04-17T14:10:08.517Z,22.70
2018-04-17T14:12:36.033Z,22.70
2018-04-17T14:15:04.310Z,23.10
2018-04-17T14:17:31.965Z,23.10
2018-04-17T14:19:59.543Z,22.90
2018-04-17T14:22:27.832Z,23.00
2018-04-17T14:24:55.318Z,23.00
2018-04-17T14:27:22.848Z,23.10
2018-04-17T14:29:51.099Z,23.10
2018-04-17T14:32:18.755Z,23.10
2018-04-17T14:34:46.367Z,23.30
2018-04-17T14:37:13.906Z,23.00
2018-04-17T14:39:42.174Z,22.90
2018-04-17T14:42:10.360Z,22.90
2018-04-17T14:44:37.853Z,23.20
2018-04-17T14:47:05.395Z,23.30
2018-04-17T14:49:32.914Z,23.40
2018-04-17T14:52:00.408Z,23.60
2018-04-17T14:54:27.951Z,23.70
2018-04-17T14:56:55.431Z,23.60
2018-04-17T14:59:22.931Z,23.40
2018-04-17T15:01:50.438Z,23.30
2018-04-17T15:04:17.970Z,23.20
2018-04-17T15:06:46.227Z,22.90
2018-04-17T15:09:13.711Z,22.90
2018-04-17T15:11:42.008Z,22.60
2018-04-17T15:14:09.505Z,22.60
2018-04-17T15:16:37.034Z,22.50
2018-04-17T15:19:04.570Z,22.40
2018-04-17T15:21:32.153Z,22.10
2018-04-17T15:23:59.696Z,21.90
2018-04-17T15:26:27.205Z,21.70
2018-04-17T15:28:54.693Z,21.50
2018-04-17T15:31:22.961Z,21.30
2018-04-17T15:33:51.237Z,21.20
2018-04-17T15:36:18.720Z,21.20
2018-04-17T15:38:47.001Z,20.90
2018-04-17T15:41:14.554Z,20.90
2018-04-17T15:43:43.101Z,20.80
2018-04-17T15:46:12.071Z,20.70
2018-04-17T15:48:39.712Z,20.70
2018-04-17T15:51:07.201Z,20.70
2018-04-17T15:53:34.795Z,20.60
2018-04-17T15:56:02.332Z,20.50
2018-04-17T15:58:29.828Z,20.50
2018-04-17T16:00:58.188Z,20.40
2018-04-17T16:03:25.805Z,20.40
2018-04-17T16:05:53.258Z,20.30
2018-04-17T16:08:20.773Z,20.20
2018-04-17T16:10:49.026Z,20.10
2018-04-17T16:13:16.521Z,20.10
2018-04-17T16:15:44.043Z,20.10
2018-04-17T16:18:11.539Z,20.00
2018-04-17T16:20:39.816Z,19.80
2018-04-17T16:23:07.330Z,19.70
2018-04-17T16:25:34.822Z,19.70
2018-04-17T16:28:03.066Z,19.60
2018-04-17T16:30:30.566Z,19.60
2018-04-17T16:32:58.091Z,19.50
2018-04-17T16:35:25.613Z,19.50
2018-04-17T16:37:53.123Z,19.30
2018-04-17T16:40:20.617Z,19.30
2018-04-17T16:42:48.115Z,19.20
2018-04-17T16:45:15.608Z,19.20
2018-04-17T16:47:43.945Z,19.10
2018-04-17T16:50:11.439Z,19.10
2018-04-17T16:52:39.708Z,19.00
2018-04-17T16:55:07.312Z,19.00
2018-04-17T16:57:34.818Z,19.00
2018-04-17T17:00:02.370Z,18.90
2018-04-17T17:02:29.887Z,18.80
2018-04-17T17:04:57.404Z,18.80
2018-04-17T17:07:24.920Z,18.80
2018-04-17T17:09:52.457Z,18.80
2018-04-17T17:12:20.040Z,18.70
2018-04-17T17:14:47.597Z,18.60
2018-04-17T17:17:15.089Z,18.50
2018-04-17T17:19:42.586Z,18.50
2018-04-17T17:22:10.079Z,18.50
2018-04-17T17:24:37.667Z,18.50
2018-04-17T17:27:05.170Z,18.40
2018-04-17T17:29:32.690Z,18.30
2018-04-17T17:32:00.222Z,18.30
2018-04-17T17:34:27.737Z,18.20
2018-04-17T17:36:56.244Z,18.10
2018-04-17T17:39:23.898Z,18.10
2018-04-17T17:41:51.430Z,18.10
2018-04-17T17:44:19.747Z,17.90
2018-04-17T17:46:48.177Z,17.90
2018-04-17T17:49:15.655Z,17.80
2018-04-17T17:51:43.974Z,17.60
2018-04-17T17:54:11.473Z,17.50
2018-04-17T17:56:38.965Z,17.50
2018-04-17T17:59:07.169Z,17.40
2018-04-17T18:01:34.697Z,17.30
2018-04-17T18:04:02.196Z,17.20
2018-04-17T18:06:29.703Z,17.10
2018-04-17T18:08:57.210Z,17.00
2018-04-17T18:11:24.692Z,17.00
2018-04-17T18:13:53.726Z,16.90
2018-04-17T18:16:21.226Z,16.90
2018-04-17T18:18:48.724Z,16.90
2018-04-17T18:21:16.225Z,16.80
2018-04-17T18:23:43.715Z,16.70
2018-04-17T18:26:11.426Z,16.60
2018-04-17T18:28:38.960Z,16.60
2018-04-17T18:31:07.244Z,16.60
2018-04-17T18:33:35.521Z,16.50
2018-04-17T18:36:03.818Z,16.50
2018-04-17T18:38:31.331Z,16.50
2018-04-17T18:40:58.845Z,16.40
2018-04-17T18:43:26.331Z,16.40
2018-04-17T18:45:53.838Z,16.30
2018-04-17T18:48:21.528Z,16.20
2018-04-17T18:50:49.043Z,16.20
2018-04-17T18:53:17.305Z,16.10
2018-04-17T18:55:44.801Z,16.10
2018-04-17T18:58:12.380Z,16.10
2018-04-17T19:00:41.146Z,16.10
2018-04-17T19:03:08.624Z,16.10
2018-04-17T19:05:36.199Z,16.00
2018-04-17T19:08:03.691Z,16.00
2018-04-17T19:10:31.197Z,15.90
2018-04-17T19:12:58.694Z,15.80
2018-04-17T19:15:26.254Z,15.80
2018-04-17T19:17:53.874Z,15.80
2018-04-17T19:20:21.432Z,15.80
2018-04-17T19:22:48.950Z,15.80
2018-04-17T19:25:16.470Z,15.70
2018-04-17T19:27:44.013Z,15.50
2018-04-17T19:30:11.526Z,15.40
2018-04-17T19:32:39.138Z,15.30
2018-04-17T19:35:06.665Z,15.20
2018-04-17T19:37:34.921Z,15.10
2018-04-17T19:40:02.441Z,15.00
2018-04-17T19:42:29.955Z,15.00
2018-04-17T19:44:58.223Z,14.90
2018-04-17T19:47:26.512Z,14.90
2018-04-17T19:49:54.782Z,14.90
2018-04-17T19:52:23.077Z,14.90
2018-04-17T19:54:50.580Z,14.80
2018-04-17T19:57:18.097Z,14.80
2018-04-17T19:59:45.609Z,14.70
2018-04-17T20:02:13.098Z,14.70
2018-04-17T20:04:40.630Z,14.70
2018-04-17T20:07:08.127Z,14.80
2018-04-17T20:09:35.682Z,14.70
2018-04-17T20:12:03.943Z,14.60
2018-04-17T20:14:32.198Z,14.60
2018-04-17T20:16:59.708Z,14.50
2018-04-17T20:19:27.198Z,14.50
2018-04-17T20:21:54.694Z,14.50
2018-04-17T20:24:22.964Z,14.40
2018-04-17T20:26:50.454Z,14.40
2018-04-17T20:29:17.978Z,14.40
2018-04-17T20:31:45.508Z,14.30
2018-04-17T20:34:12.970Z,14.30
2018-04-17T20:36:40.477Z,14.30
2018-04-17T20:39:08.743Z,14.20
2018-04-17T20:41:37.029Z,14.20
2018-04-17T20:44:05.333Z,14.10
2018-04-17T20:46:32.834Z,14.10
2018-04-17T20:49:00.343Z,14.00
2018-04-17T20:51:27.897Z,14.00
2018-04-17T20:53:55.383Z,14.00
2018-04-17T20:56:22.920Z,13.90
2018-04-17T20:58:50.422Z,13.80
2018-04-17T21:01:17.934Z,13.80
2018-04-17T21:03:45.434Z,13.80
2018-04-17T21:06:13.368Z,13.80
2018-04-17T21:08:40.873Z,13.80
2018-04-17T21:11:08.695Z,13.70
2018-04-17T21:13:36.203Z,13.70
2018-04-17T21:16:03.712Z,13.60
2018-04-17T21:18:31.226Z,13.60
2018-04-17T21:20:58.730Z,13.60
2018-04-17T21:23:26.223Z,13.50
2018-04-17T21:25:53.731Z,13.50
2018-04-17T21:28:21.220Z,13.50
2018-04-17T21:30:48.764Z,13.40
2018-04-17T21:33:16.255Z,13.30
2018-04-17T21:35:44.544Z,13.20
2018-04-17T21:38:12.043Z,13.20
2018-04-17T21:40:39.527Z,13.10
2018-04-17T21:43:07.029Z,13.00
2018-04-17T21:45:34.539Z,13.00
2018-04-17T21:48:02.019Z,13.00
2018-04-17T21:50:29.518Z,12.80
2018-04-17T21:52:57.771Z,12.80
2018-04-17T21:55:25.291Z,12.70
2018-04-17T21:57:52.807Z,12.70
2018-04-17T22:00:21.094Z,12.70
2018-04-17T22:02:49.371Z,12.60
2018-04-17T22:05:17.631Z,12.50
2018-04-17T22:07:45.909Z,12.40
2018-04-17T22:10:13.438Z,12.40
2018-04-17T22:12:40.916Z,12.40
2018-04-17T22:15:08.458Z,12.30
2018-04-17T22:17:35.943Z,12.30
2018-04-17T22:20:03.455Z,12.20
2018-04-17T22:22:30.949Z,12.20
2018-04-17T22:24:58.438Z,12.10
2018-04-17T22:27:26.703Z,12.10
2018-04-17T22:29:54.958Z,12.10
2018-04-17T22:32:22.470Z,12.10
2018-04-17T22:34:49.970Z,12.00
2018-04-17T22:37:17.474Z,12.00
2018-04-17T22:39:44.975Z,12.00
2018-04-17T22:42:12.466Z,11.90
2018-04-17T22:44:39.972Z,11.80
2018-04-17T22:47:07.453Z,11.80
2018-04-17T22:49:34.942Z,11.80
2018-04-17T22:52:03.201Z,11.70
2018-04-17T22:54:30.686Z,11.70
2018-04-17T22:56:58.975Z,11.60
2018-04-17T22:59:26.463Z,11.60
2018-04-17T23:01:54.060Z,11.60
2018-04-17T23:04:21.549Z,11.60
2018-04-17T23:06:49.805Z,11.50
2018-04-17T23:09:17.320Z,11.50
2018-04-17T23:11:44.816Z,11.50
2018-04-17T23:14:12.298Z,11.50
2018-04-17T23:16:40.553Z,11.40
2018-04-17T23:19:08.039Z,11.40
2018-04-17T23:21:35.597Z,11.40
2018-04-17T23:24:03.084Z,11.40
2018-04-17T23:26:30.609Z,11.40
2018-04-17T23:28:58.868Z,11.40
2018-04-17T23:31:26.370Z,11.40
2018-04-17T23:33:53.898Z,11.40
2018-04-17T23:36:21.401Z,11.30
2018-04-17T23:38:48.883Z,11.30
2018-04-17T23:41:16.374Z,11.20
2018-04-17T23:43:44.623Z,11.20
2018-04-17T23:46:12.138Z,11.20
2018-04-17T23:48:39.637Z,11.20
2018-04-17T23:51:07.131Z,11.20
2018-04-17T23:53:35.385Z,11.10
2018-04-17T23:56:02.869Z,11.10
2018-04-17T23:58:30.387Z,11.10
